createdAt,value
2019-03-26T00:02:08.035Z,9.68
2019-03-26T00:04:37.024Z,6.50
2019-03-26T00:07:05.946Z,8.43
2019-03-26T00:09:34.904Z,7.08
2019-03-26T00:12:03.982Z,8.03
2019-03-26T00:14:32.890Z,8.35
2019-03-26T00:17:01.858Z,5.75
2019-03-26T00:19:30.857Z,8.68
2019-03-26T00:21:59.826Z,10.48
2019-03-26T00:24:28.826Z,8.48
2019-03-26T00:26:57.776Z,9.78
2019-03-26T00:29:26.778Z,8.10
2019-03-26T00:31:55.722Z,6.45
2019-03-26T00:34:24.686Z,7.05
2019-03-26T00:36:53.646Z,7.42
2019-03-26T00:39:22.562Z,6.97
2019-03-26T00:41:51.516Z,8.30
2019-03-26T00:44:20.474Z,7.67
2019-03-26T00:46:49.424Z,10.85
2019-03-26T00:49:18.341Z,8.35
2019-03-26T00:51:47.271Z,8.30
2019-03-26T00:54:16.224Z,8.53
2019-03-26T00:56:45.196Z,5.75
2019-03-26T00:59:14.162Z,8.90
2019-03-26T01:01:43.088Z,6.97
2019-03-26T01:04:12.060Z,7.90
2019-03-26T01:06:40.972Z,8.28
2019-03-26T01:09:09.925Z,5.35
2019-03-26T01:11:38.828Z,6.25
2019-03-26T01:14:07.758Z,6.87
2019-03-26T01:16:36.680Z,6.85
2019-03-26T01:19:05.637Z,7.45
2019-03-26T01:21:34.476Z,6.55
2019-03-26T01:24:22.265Z,6.60
2019-03-26T01:26:51.303Z,8.45
2019-03-26T01:29:20.262Z,5.85
2019-03-26T01:31:49.277Z,6.87
2019-03-26T01:34:18.196Z,7.00
2019-03-26T01:36:47.082Z,7.75
2019-03-26T01:39:15.941Z,8.40
2019-03-26T01:41:44.920Z,8.10
2019-03-26T01:44:13.853Z,6.72
2019-03-26T01:46:44.504Z,6.45
2019-03-26T01:49:13.431Z,7.67
2019-03-26T01:51:42.350Z,6.80
2019-03-26T01:54:11.312Z,7.70
2019-03-26T01:56:40.260Z,7.67
2019-03-26T01:59:09.196Z,5.83
2019-03-26T02:01:56.932Z,6.42
2019-03-26T02:04:27.702Z,8.25
2019-03-26T02:06:56.655Z,6.72
2019-03-26T02:09:25.629Z,8.85
2019-03-26T02:11:54.634Z,7.40
2019-03-26T02:14:23.604Z,8.48
2019-03-26T02:16:52.532Z,8.08
2019-03-26T02:19:21.489Z,7.70
2019-03-26T02:21:50.417Z,8.95
2019-03-26T02:24:19.379Z,10.58
2019-03-26T02:26:48.364Z,9.75
2019-03-26T02:29:17.290Z,9.08
2019-03-26T02:31:46.281Z,7.42
2019-03-26T02:34:15.179Z,8.45
2019-03-26T02:36:44.085Z,9.10
2019-03-26T02:39:12.978Z,9.80
2019-03-26T02:41:42.027Z,8.60
2019-03-26T02:44:11.023Z,7.28
2019-03-26T02:46:39.966Z,9.88
2019-03-26T02:49:08.987Z,9.43
2019-03-26T02:51:40.749Z,6.55
2019-03-26T02:54:09.694Z,8.20
2019-03-26T02:56:38.674Z,9.10
2019-03-26T02:59:07.687Z,9.88
2019-03-26T03:01:36.662Z,11.38
2019-03-26T03:04:05.613Z,11.95
2019-03-26T03:06:34.562Z,8.23
2019-03-26T03:09:05.240Z,8.90
2019-03-26T03:11:34.176Z,8.78
2019-03-26T03:14:03.136Z,9.63
2019-03-26T03:16:32.054Z,9.15
2019-03-26T03:19:01.025Z,9.80
2019-03-26T03:21:29.890Z,7.58
2019-03-26T03:23:58.860Z,10.95
2019-03-26T03:26:27.789Z,7.78
2019-03-26T03:28:56.739Z,9.15
2019-03-26T03:31:25.692Z,10.55
2019-03-26T03:33:54.663Z,10.95
2019-03-26T03:36:23.613Z,9.23
2019-03-26T03:38:52.644Z,11.38
2019-03-26T03:41:21.473Z,11.30
2019-03-26T03:43:50.447Z,10.38
2019-03-26T03:46:22.279Z,8.85
2019-03-26T03:48:51.239Z,9.93
2019-03-26T03:51:22.148Z,9.13
2019-03-26T03:53:51.087Z,9.00
2019-03-26T03:56:20.402Z,10.10
2019-03-26T03:58:50.239Z,9.53
2019-03-26T04:01:19.277Z,10.80
2019-03-26T04:03:48.248Z,10.13
2019-03-26T04:06:17.212Z,12.93
2019-03-26T04:08:46.203Z,13.40
2019-03-26T04:11:15.110Z,12.82
2019-03-26T04:13:43.968Z,11.65
2019-03-26T04:16:12.939Z,13.95
2019-03-26T04:18:42.009Z,13.03
2019-03-26T04:21:11.205Z,11.90
2019-03-26T04:23:40.180Z,11.15
2019-03-26T04:26:09.156Z,10.43
2019-03-26T04:28:38.094Z,11.57
2019-03-26T04:31:07.029Z,12.80
2019-03-26T04:33:36.024Z,11.20
2019-03-26T04:36:05.095Z,11.43
2019-03-26T04:38:34.056Z,12.75
2019-03-26T04:41:03.020Z,10.65
2019-03-26T04:43:31.936Z,11.18
2019-03-26T04:46:00.873Z,13.65
2019-03-26T04:48:29.790Z,10.58
2019-03-26T04:50:58.796Z,12.50
2019-03-26T04:53:27.792Z,11.45
2019-03-26T04:55:56.734Z,13.08
2019-03-26T04:58:25.682Z,12.47
2019-03-26T05:00:54.657Z,12.45
2019-03-26T05:03:23.934Z,14.38
2019-03-26T05:05:52.953Z,11.38
2019-03-26T05:08:21.934Z,12.40
2019-03-26T05:10:50.894Z,10.45
2019-03-26T05:13:19.843Z,10.35
2019-03-26T05:15:48.808Z,9.70
2019-03-26T05:18:17.756Z,11.65
2019-03-26T05:20:46.737Z,9.70
2019-03-26T05:23:15.702Z,12.60
2019-03-26T05:25:44.647Z,10.15
2019-03-26T05:28:13.632Z,11.68
2019-03-26T05:30:42.568Z,9.60
2019-03-26T05:33:11.559Z,11.20
2019-03-26T05:35:46.603Z,11.15
2019-03-26T05:38:15.734Z,9.03
2019-03-26T05:40:44.726Z,9.38
2019-03-26T05:43:13.677Z,7.33
2019-03-26T05:45:42.589Z,8.25
2019-03-26T05:48:11.588Z,10.78
2019-03-26T05:50:40.474Z,8.70
2019-03-26T05:53:09.518Z,10.50
2019-03-26T05:55:38.432Z,8.13
2019-03-26T05:58:07.297Z,7.78
2019-03-26T06:00:36.262Z,7.42
2019-03-26T06:03:05.259Z,9.55
2019-03-26T06:05:34.319Z,6.78
2019-03-26T06:08:03.296Z,7.90
2019-03-26T06:10:32.264Z,9.25
2019-03-26T06:13:01.223Z,7.50
2019-03-26T06:15:30.329Z,7.40
2019-03-26T06:17:59.335Z,10.65
2019-03-26T06:20:28.310Z,7.97
2019-03-26T06:22:57.283Z,5.90
2019-03-26T06:25:26.229Z,7.28
2019-03-26T06:27:55.406Z,7.37
2019-03-26T06:30:24.374Z,7.67
2019-03-26T06:32:53.465Z,7.13
2019-03-26T06:35:22.551Z,8.03
2019-03-26T06:37:51.506Z,7.93
2019-03-26T06:40:20.505Z,6.90
2019-03-26T06:42:49.478Z,7.13
2019-03-26T06:45:18.345Z,8.73
2019-03-26T06:47:47.323Z,7.37
2019-03-26T06:50:16.837Z,8.37
2019-03-26T06:52:45.859Z,9.27
2019-03-26T06:55:14.942Z,6.60
2019-03-26T06:57:43.947Z,6.97
2019-03-26T07:00:13.326Z,7.10
2019-03-26T07:02:43.126Z,11.17
2019-03-26T07:05:12.044Z,7.80
2019-03-26T07:07:41.034Z,10.30
2019-03-26T07:10:10.801Z,6.53
2019-03-26T07:12:39.848Z,7.80
2019-03-26T07:15:09.482Z,8.43
2019-03-26T07:17:38.603Z,7.60
2019-03-26T07:20:09.288Z,9.73
2019-03-26T07:22:38.499Z,6.43
2019-03-26T07:25:08.479Z,7.43
2019-03-26T07:27:37.767Z,6.57
2019-03-26T07:30:07.448Z,8.17
2019-03-26T07:32:36.532Z,8.97
2019-03-26T07:35:05.752Z,6.63
2019-03-26T07:37:44.524Z,6.07
2019-03-26T07:40:06.906Z,7.23
2019-03-26T07:42:35.844Z,6.33
2019-03-26T07:45:05.292Z,7.97
2019-03-26T07:47:34.259Z,7.83
2019-03-26T07:50:03.228Z,7.17
2019-03-26T07:52:32.237Z,6.23
2019-03-26T07:55:01.237Z,8.63
2019-03-26T07:57:30.291Z,10.77
2019-03-26T07:59:59.290Z,7.67
2019-03-26T08:02:28.250Z,6.60
2019-03-26T08:04:57.152Z,9.90
2019-03-26T08:07:26.212Z,8.63
2019-03-26T08:09:55.300Z,10.17
2019-03-26T08:12:24.296Z,10.00
2019-03-26T08:14:53.285Z,6.17
2019-03-26T08:17:22.302Z,8.97
2019-03-26T08:19:51.324Z,7.03
2019-03-26T08:22:20.263Z,8.63
2019-03-26T08:24:49.172Z,7.23
2019-03-26T08:27:18.216Z,9.37
2019-03-26T08:29:47.202Z,7.43
2019-03-26T08:32:16.244Z,6.57
2019-03-26T08:34:46.761Z,6.70
2019-03-26T08:37:15.975Z,8.43
2019-03-26T08:39:45.004Z,6.80
2019-03-26T08:42:13.957Z,9.60
2019-03-26T08:44:42.979Z,8.13
2019-03-26T08:47:30.719Z,7.50
2019-03-26T08:49:59.745Z,7.17
2019-03-26T09:16:20.933Z,8.13
2019-03-26T09:22:00.256Z,8.47
2019-03-26T09:24:29.273Z,7.87
2019-03-26T09:26:58.259Z,6.93
2019-03-26T09:29:27.232Z,7.63
2019-03-26T09:31:56.173Z,8.87
2019-03-26T09:34:25.168Z,9.63
2019-03-26T09:36:54.265Z,7.80
2019-03-26T09:39:23.254Z,6.73
2019-03-26T09:41:52.148Z,7.40
2019-03-26T09:44:21.114Z,6.97
2019-03-26T09:46:50.058Z,10.77
2019-03-26T09:49:19.132Z,5.37
2019-03-26T09:51:48.191Z,10.63
2019-03-26T09:54:17.076Z,5.97
2019-03-26T09:56:46.087Z,7.87
2019-03-26T09:59:15.217Z,10.37
2019-03-26T10:01:44.165Z,6.20
2019-03-26T10:04:13.098Z,5.53
2019-03-26T10:06:42.040Z,7.57
2019-03-26T10:09:16.880Z,8.53
2019-03-26T10:11:45.707Z,5.80
2019-03-26T10:14:14.737Z,6.03
2019-03-26T10:16:43.712Z,7.10
2019-03-26T10:19:12.695Z,6.17
2019-03-26T10:21:41.659Z,5.40
2019-03-26T10:24:10.639Z,6.13
2019-03-26T10:26:39.641Z,5.47
2019-03-26T10:29:23.892Z,6.20
2019-03-26T10:31:39.318Z,5.57
2019-03-26T10:34:08.301Z,4.50
2019-03-26T10:36:37.357Z,5.10
2019-03-26T10:39:06.955Z,4.73
2019-03-26T10:41:36.025Z,3.93
2019-03-26T10:44:04.983Z,3.90
2019-03-26T10:46:33.939Z,5.03
2019-03-26T10:49:02.870Z,8.40
2019-03-26T10:51:31.951Z,5.33
2019-03-26T10:54:00.879Z,6.10
2019-03-26T10:56:32.498Z,13.90
2019-03-26T10:59:00.488Z,9.00
2019-03-26T11:01:29.478Z,12.20
2019-03-26T11:03:58.752Z,6.97
2019-03-26T11:06:27.819Z,7.13
2019-03-26T11:08:56.878Z,4.10
2019-03-26T11:11:25.903Z,3.53
2019-03-26T11:13:54.869Z,5.77
2019-03-26T11:16:23.833Z,3.30
2019-03-26T11:18:52.832Z,4.33
2019-03-26T11:21:21.826Z,6.60
2019-03-26T11:23:50.826Z,5.33
2019-03-26T11:26:19.814Z,6.50
2019-03-26T11:28:48.810Z,5.50
2019-03-26T11:31:18.022Z,5.27
2019-03-26T11:33:46.981Z,6.43
2019-03-26T11:36:16.115Z,4.67
2019-03-26T11:38:45.047Z,6.30
2019-03-26T11:41:13.992Z,4.10
2019-03-26T11:43:42.919Z,6.10
2019-03-26T11:46:11.883Z,4.03
2019-03-26T11:48:40.986Z,4.23
2019-03-26T11:51:10.073Z,3.40
2019-03-26T11:53:39.011Z,4.30
2019-03-26T11:56:08.009Z,4.97
2019-03-26T11:58:36.975Z,3.73
2019-03-26T12:01:06.052Z,5.77
2019-03-26T12:03:35.029Z,4.60
2019-03-26T12:06:03.972Z,4.60
2019-03-26T12:08:33.210Z,5.23
2019-03-26T12:11:02.165Z,5.47
2019-03-26T12:13:31.217Z,5.07
2019-03-26T12:16:00.315Z,4.57
2019-03-26T12:18:29.265Z,3.43
2019-03-26T12:20:58.300Z,3.53
2019-03-26T12:23:27.340Z,3.73
2019-03-26T12:25:56.411Z,3.77
2019-03-26T12:28:25.348Z,5.77
2019-03-26T12:30:54.375Z,5.90
2019-03-26T12:33:23.309Z,3.37
2019-03-26T12:35:52.301Z,4.10
2019-03-26T12:38:21.600Z,4.27
2019-03-26T12:40:51.112Z,3.47
2019-03-26T12:43:20.182Z,5.00
2019-03-26T12:45:49.573Z,4.07
2019-03-26T12:48:18.639Z,5.53
2019-03-26T12:50:47.616Z,7.73
2019-03-26T12:53:16.586Z,5.70
2019-03-26T12:55:45.708Z,5.33
2019-03-26T12:58:14.754Z,4.40
2019-03-26T13:00:43.721Z,5.50
2019-03-26T13:03:12.782Z,4.27
2019-03-26T13:05:41.754Z,4.17
2019-03-26T13:08:10.730Z,4.87
2019-03-26T13:10:52.421Z,4.17
2019-03-26T13:13:10.534Z,4.87
2019-03-26T13:15:39.426Z,3.93
2019-03-26T13:18:11.081Z,4.77
2019-03-26T13:20:39.090Z,4.60
2019-03-26T13:23:08.097Z,5.10
2019-03-26T13:25:37.095Z,3.50
2019-03-26T13:28:06.139Z,5.40
2019-03-26T13:30:35.083Z,4.90
2019-03-26T13:33:04.168Z,4.33
2019-03-26T13:35:33.088Z,4.97
2019-03-26T13:38:02.068Z,3.43
2019-03-26T13:40:31.013Z,5.43
2019-03-26T13:42:59.946Z,3.90
2019-03-26T13:45:28.921Z,7.13
2019-03-26T13:47:58.047Z,13.67
2019-03-26T13:50:27.056Z,8.10
2019-03-26T13:52:56.078Z,7.07
2019-03-26T13:55:25.085Z,6.30
2019-03-26T13:57:54.091Z,5.33
2019-03-26T14:00:32.598Z,5.23
2019-03-26T14:03:01.626Z,6.47
2019-03-26T14:05:30.592Z,5.57
2019-03-26T14:07:59.542Z,6.37
2019-03-26T14:10:40.184Z,5.13
2019-03-26T14:13:00.328Z,7.53
2019-03-26T14:15:29.296Z,5.37
2019-03-26T14:17:58.370Z,8.53
2019-03-26T14:20:27.446Z,5.17
2019-03-26T14:22:56.434Z,5.80
2019-03-26T14:25:25.442Z,3.47
2019-03-26T14:27:54.482Z,3.17
2019-03-26T14:30:42.311Z,5.33
2019-03-26T14:33:11.314Z,3.60
2019-03-26T14:35:40.307Z,4.57
2019-03-26T14:38:09.325Z,4.30
2019-03-26T14:40:38.396Z,6.10
2019-03-26T14:43:07.577Z,4.70
2019-03-26T14:45:36.570Z,4.27
2019-03-26T14:48:05.942Z,5.23
2019-03-26T14:50:34.782Z,5.40
2019-03-26T14:53:03.772Z,5.37
2019-03-26T14:55:32.712Z,7.47
2019-03-26T14:58:01.591Z,5.77
2019-03-26T15:00:30.522Z,4.73
2019-03-26T15:02:59.574Z,6.37
2019-03-26T15:05:28.598Z,4.57
2019-03-26T15:07:57.694Z,5.80
2019-03-26T15:10:26.621Z,5.20
2019-03-26T15:12:55.649Z,4.87
2019-03-26T15:15:24.604Z,4.27
2019-03-26T15:17:53.570Z,8.23
2019-03-26T15:20:22.604Z,20.33
2019-03-26T15:22:51.644Z,9.23
2019-03-26T15:25:20.617Z,5.00
2019-03-26T15:27:49.572Z,6.27
2019-03-26T15:30:18.656Z,7.33
2019-03-26T15:32:47.783Z,5.93
2019-03-26T15:35:16.764Z,4.77
2019-03-26T15:37:45.681Z,6.07
2019-03-26T15:40:15.000Z,5.63
2019-03-26T15:42:43.930Z,6.50
2019-03-26T15:45:13.841Z,4.83
2019-03-26T15:47:42.847Z,6.57
2019-03-26T15:50:12.053Z,4.60
2019-03-26T15:52:42.417Z,4.67
2019-03-26T15:55:11.631Z,4.97
2019-03-26T15:57:40.629Z,5.40
2019-03-26T16:00:09.793Z,5.53
2019-03-26T16:02:38.759Z,4.77
2019-03-26T16:05:08.258Z,6.23
2019-03-26T16:07:43.241Z,8.73
2019-03-26T16:10:12.177Z,4.70
2019-03-26T16:12:41.631Z,4.07
2019-03-26T16:15:10.653Z,8.37
2019-03-26T16:17:39.593Z,4.83
2019-03-26T16:20:08.680Z,3.50
2019-03-26T16:22:37.657Z,5.47
2019-03-26T16:25:06.771Z,3.60
2019-03-26T16:27:35.796Z,2.83
2019-03-26T16:30:04.892Z,5.00
2019-03-26T16:32:34.949Z,2.77
2019-03-26T16:35:04.135Z,3.70
2019-03-26T16:37:33.274Z,3.60
2019-03-26T16:40:02.176Z,3.33
2019-03-26T16:42:31.219Z,3.80
2019-03-26T16:45:00.397Z,5.97
2019-03-26T16:47:29.279Z,3.43
2019-03-26T16:49:58.258Z,5.13
2019-03-26T16:52:27.781Z,5.57
2019-03-26T16:54:56.737Z,2.97
2019-03-26T16:57:25.668Z,5.70
2019-03-26T16:59:54.755Z,5.03
2019-03-26T17:02:23.690Z,3.93
2019-03-26T17:04:52.793Z,3.10
2019-03-26T17:07:21.761Z,3.87
2019-03-26T17:09:50.706Z,3.87
2019-03-26T17:12:23.896Z,4.27
2019-03-26T17:14:53.049Z,4.37
2019-03-26T17:17:22.197Z,3.23
2019-03-26T17:19:51.211Z,4.60
2019-03-26T17:22:20.293Z,6.00
2019-03-26T17:24:49.229Z,6.13
2019-03-26T17:27:18.326Z,4.53
2019-03-26T17:29:47.350Z,7.23
2019-03-26T17:32:16.376Z,6.03
2019-03-26T17:34:45.517Z,4.10
2019-03-26T17:37:14.470Z,3.10
2019-03-26T17:39:43.439Z,6.07
2019-03-26T17:42:17.594Z,5.67
2019-03-26T17:44:44.016Z,3.57
2019-03-26T17:47:13.079Z,4.57
2019-03-26T17:49:42.120Z,3.57
2019-03-26T17:52:11.119Z,6.87
2019-03-26T17:54:40.086Z,8.17
2019-03-26T17:57:09.085Z,4.30
2019-03-26T17:59:38.060Z,5.97
2019-03-26T18:02:07.056Z,4.70
2019-03-26T18:04:36.087Z,6.37
2019-03-26T18:07:05.588Z,8.20
2019-03-26T18:09:34.889Z,6.37
2019-03-26T18:12:03.973Z,5.07
2019-03-26T18:14:33.143Z,4.63
2019-03-26T18:17:02.258Z,5.37
2019-03-26T18:19:31.428Z,6.63
2019-03-26T18:22:00.606Z,8.03
2019-03-26T18:24:29.788Z,6.53
2019-03-26T18:26:59.706Z,8.67
2019-03-26T18:29:28.854Z,7.40
2019-03-26T18:31:57.860Z,9.07
2019-03-26T18:34:26.930Z,4.67
2019-03-26T18:36:55.974Z,4.83
2019-03-26T18:39:25.003Z,7.30
2019-03-26T18:41:54.131Z,6.57
2019-03-26T18:44:23.245Z,11.00
2019-03-26T18:46:52.239Z,6.13
2019-03-26T18:49:21.715Z,7.37
2019-03-26T18:51:51.160Z,7.93
2019-03-26T18:54:20.189Z,7.80
2019-03-26T18:56:49.258Z,8.83
2019-03-26T18:59:18.566Z,7.53
2019-03-26T19:01:47.624Z,5.33
2019-03-26T19:04:16.650Z,8.23
2019-03-26T19:06:45.771Z,5.63
2019-03-26T19:09:14.739Z,6.27
2019-03-26T19:11:43.816Z,6.43
2019-03-26T19:14:13.010Z,7.33
2019-03-26T19:16:42.040Z,10.03
2019-03-26T19:19:11.052Z,12.33
2019-03-26T19:21:40.199Z,9.43
2019-03-26T19:24:09.311Z,8.40
2019-03-26T19:26:38.398Z,12.33
2019-03-26T19:29:07.894Z,9.10
2019-03-26T19:31:36.965Z,10.17
2019-03-26T19:34:06.066Z,7.07
2019-03-26T19:36:35.113Z,7.93
2019-03-26T19:39:06.487Z,7.43
2019-03-26T19:41:35.785Z,10.77
2019-03-26T19:44:04.843Z,7.93
2019-03-26T19:46:33.884Z,8.87
2019-03-26T19:49:03.010Z,8.10
2019-03-26T19:51:32.040Z,11.67
2019-03-26T19:54:01.072Z,11.00
2019-03-26T19:56:30.101Z,10.77
2019-03-26T19:58:59.145Z,12.50
2019-03-26T20:01:28.207Z,11.23
2019-03-26T20:03:57.339Z,12.00
2019-03-26T20:06:45.205Z,11.10
2019-03-26T20:09:14.367Z,9.47
2019-03-26T20:11:43.496Z,10.60
2019-03-26T20:14:12.494Z,10.37
2019-03-26T20:16:42.341Z,12.07
2019-03-26T20:19:11.533Z,11.70
2019-03-26T20:21:40.579Z,11.90
2019-03-26T20:24:09.602Z,17.77
2019-03-26T20:26:38.633Z,12.83
2019-03-26T20:29:07.690Z,12.67
2019-03-26T20:31:36.717Z,15.83
2019-03-26T20:34:05.672Z,14.07
2019-03-26T20:36:34.747Z,13.03
2019-03-26T20:39:04.616Z,16.33
2019-03-26T20:41:33.708Z,15.23
2019-03-26T20:44:02.647Z,15.23
2019-03-26T20:46:31.784Z,12.93
2019-03-26T20:49:00.879Z,16.07
2019-03-26T20:51:29.974Z,15.87
2019-03-26T20:53:59.019Z,14.63
2019-03-26T20:56:28.266Z,14.83
2019-03-26T20:58:57.556Z,14.77
2019-03-26T21:01:26.608Z,16.10
2019-03-26T21:03:55.644Z,15.20
2019-03-26T21:06:24.605Z,19.27
2019-03-26T21:09:12.424Z,16.37
2019-03-26T21:11:41.396Z,19.13
2019-03-26T21:14:10.386Z,19.30
2019-03-26T21:16:39.365Z,19.10
2019-03-26T21:19:08.315Z,16.23
2019-03-26T21:21:37.372Z,16.90
2019-03-26T21:24:06.378Z,15.43
2019-03-26T21:26:35.351Z,16.87
2019-03-26T21:29:04.370Z,15.47
2019-03-26T21:31:33.325Z,14.43
2019-03-26T21:34:02.311Z,15.47
2019-03-26T21:36:31.316Z,19.67
2019-03-26T21:39:00.299Z,16.13
2019-03-26T21:41:29.388Z,19.13
2019-03-26T21:44:04.327Z,17.93
2019-03-26T21:46:29.171Z,15.60
2019-03-26T21:48:58.202Z,18.23
2019-03-26T21:51:27.230Z,15.90
2019-03-26T21:53:56.207Z,15.07
2019-03-26T21:56:25.173Z,15.73
2019-03-26T21:58:54.157Z,16.83
2019-03-26T22:01:23.104Z,16.63
2019-03-26T22:03:52.074Z,12.93
2019-03-26T22:06:22.068Z,17.03
2019-03-26T22:08:51.038Z,13.73
2019-03-26T22:11:20.104Z,18.97
2019-03-26T22:13:49.045Z,15.73
2019-03-26T22:16:18.029Z,16.40
2019-03-26T22:18:46.991Z,15.33
2019-03-26T22:21:15.975Z,16.57
2019-03-26T22:23:44.928Z,17.80
2019-03-26T22:26:17.103Z,19.90
2019-03-26T22:28:46.076Z,17.47
2019-03-26T22:31:15.136Z,16.67
2019-03-26T22:33:44.110Z,15.90
2019-03-26T22:36:13.199Z,22.37
2019-03-26T22:38:42.199Z,18.30
2019-03-26T22:41:11.137Z,16.07
2019-03-26T22:43:40.100Z,15.83
2019-03-26T22:46:09.158Z,18.53
2019-03-26T22:48:38.214Z,18.20
2019-03-26T22:51:07.189Z,19.23
2019-03-26T22:53:36.181Z,19.53
2019-03-26T22:56:05.196Z,20.87
2019-03-26T22:58:34.094Z,17.37
2019-03-26T23:01:03.096Z,18.80
2019-03-26T23:03:32.126Z,17.77
2019-03-26T23:06:01.160Z,19.20
2019-03-26T23:08:30.152Z,19.17
2019-03-26T23:10:59.091Z,20.70
2019-03-26T23:13:28.142Z,20.20
2019-03-26T23:15:57.160Z,20.57
2019-03-26T23:18:26.208Z,19.43
2019-03-26T23:20:55.169Z,20.77
2019-03-26T23:23:24.076Z,21.60
2019-03-26T23:25:53.052Z,20.23
2019-03-26T23:28:22.035Z,24.60
2019-03-26T23:30:51.006Z,22.93
2019-03-26T23:33:19.955Z,23.77
2019-03-26T23:35:48.971Z,24.93
2019-03-26T23:38:17.935Z,24.80
2019-03-26T23:40:46.911Z,19.43
2019-03-26T23:43:15.908Z,23.93
2019-03-26T23:45:44.938Z,19.83
2019-03-26T23:48:13.946Z,20.53
2019-03-26T23:50:42.942Z,23.13
2019-03-26T23:53:11.979Z,23.77
2019-03-26T23:55:40.894Z,28.03
2019-03-26T23:58:09.835Z,22.37
